createdAt,value
2023-04-22T00:00:29.734Z,97109.41
2023-04-22T00:02:57.510Z,97110.22
2023-04-22T00:05:25.387Z,97107.94
2023-04-22T00:07:53.081Z,97106.09
2023-04-22T00:10:20.755Z,97104.69
2023-04-22T00:12:48.291Z,97103.28
2023-04-22T00:15:15.829Z,97087.69
2023-04-22T00:17:46.055Z,97090.28
2023-04-22T00:20:13.730Z,97087.13
2023-04-22T00:22:41.197Z,97083.53
2023-04-22T00:25:09.286Z,97076.09
2023-04-22T00:27:36.764Z,97076.94
2023-04-22T00:30:04.496Z,97078.13
2023-04-22T00:32:32.056Z,97074.69
2023-04-22T00:35:00.953Z,97078.72
2023-04-22T00:37:28.690Z,97076.69
2023-04-22T00:39:57.939Z,97063.88
2023-04-22T00:42:25.478Z,97065.16
2023-04-22T00:44:53.034Z,97065.16
2023-04-22T00:47:20.783Z,97069.34
2023-04-22T00:49:48.424Z,97064.44
2023-04-22T00:52:17.260Z,97065.56
2023-04-22T00:54:44.806Z,97061.09
2023-04-22T00:57:12.376Z,97067.59
2023-04-22T00:59:40.262Z,97060.31
2023-04-22T01:02:08.180Z,97061.75
2023-04-22T01:04:36.596Z,97060.41
2023-04-22T01:07:04.164Z,97050.63
2023-04-22T01:09:33.027Z,97048.19
2023-04-22T01:12:01.490Z,97047.69
2023-04-22T01:14:29.330Z,97055.03
2023-04-22T01:16:57.807Z,97048.75
2023-04-22T01:19:25.441Z,97051.13
2023-04-22T01:21:52.954Z,97050.28
2023-04-22T01:24:22.262Z,97055.47
2023-04-22T01:26:50.209Z,97055.38
2023-04-22T01:29:17.744Z,97050.63
2023-04-22T01:31:45.291Z,97049.16
2023-04-22T01:34:12.871Z,97045.13
2023-04-22T01:36:40.467Z,97044.84
2023-04-22T01:39:08.508Z,97042.38
2023-04-22T01:41:37.440Z,97047.66
2023-04-22T01:44:05.261Z,97052.72
2023-04-22T01:46:33.751Z,97048.22
2023-04-22T01:49:01.426Z,97045.34
2023-04-22T01:51:28.955Z,97050.63
2023-04-22T01:53:57.058Z,97051.50
2023-04-22T01:56:24.805Z,97056.31
2023-04-22T01:58:53.824Z,97055.19
2023-04-22T02:01:21.332Z,97048.91
2023-04-22T02:03:48.977Z,97060.06
2023-04-22T02:06:16.560Z,97048.72
2023-04-22T02:08:44.111Z,97053.16
2023-04-22T02:11:13.626Z,97053.03
2023-04-22T02:13:41.497Z,97042.63
2023-04-22T02:16:10.936Z,97043.88
2023-04-22T02:18:38.479Z,97031.19
2023-04-22T02:21:09.024Z,97035.69
2023-04-22T02:23:36.587Z,97026.53
2023-04-22T02:26:04.301Z,97028.31
2023-04-22T02:28:32.009Z,97022.25
2023-04-22T02:30:59.592Z,97021.75
2023-04-22T02:33:28.480Z,97022.84
2023-04-22T02:35:55.991Z,97023.19
2023-04-22T02:38:23.548Z,97040.63
2023-04-22T02:40:51.062Z,97038.16
2023-04-22T02:43:18.675Z,97032.78
2023-04-22T02:45:46.222Z,97041.13
2023-04-22T02:48:13.928Z,97033.72
2023-04-22T02:50:44.209Z,97030.91
2023-04-22T02:53:11.795Z,97031.34
2023-04-22T02:55:40.094Z,97035.84
2023-04-22T02:58:09.651Z,97035.84
2023-04-22T03:00:37.235Z,97039.88
2023-04-22T03:03:05.085Z,97039.50
2023-04-22T03:05:34.920Z,97033.44
2023-04-22T03:08:04.853Z,97041.50
2023-04-22T03:10:33.288Z,97038.69
2023-04-22T03:13:00.868Z,97052.31
2023-04-22T03:15:28.550Z,97045.81
2023-04-22T03:17:59.389Z,97051.53
2023-04-22T03:20:27.261Z,97049.19
2023-04-22T03:22:56.101Z,97056.28
2023-04-22T03:25:28.934Z,97045.25
2023-04-22T03:27:57.681Z,97037.22
2023-04-22T03:30:25.993Z,97037.34
2023-04-22T03:32:54.280Z,97035.22
2023-04-22T03:35:26.613Z,97031.34
2023-04-22T03:37:55.512Z,97032.78
2023-04-22T03:40:29.649Z,97042.00
2023-04-22T03:42:57.433Z,97038.38
2023-04-22T03:45:25.574Z,97034.16
2023-04-22T03:48:10.647Z,97039.31
2023-04-22T03:50:43.650Z,97030.88
2023-04-22T03:53:11.605Z,97028.47
2023-04-22T03:55:41.373Z,97027.72
2023-04-22T03:58:12.073Z,97020.53
2023-04-22T04:00:39.571Z,97022.91
2023-04-22T04:03:11.934Z,97026.16
2023-04-22T04:05:39.942Z,97031.16
2023-04-22T04:08:07.649Z,97032.88
2023-04-22T04:10:35.599Z,97027.72
2023-04-22T04:13:05.432Z,97022.34
2023-04-22T04:15:41.159Z,97025.84
2023-04-22T04:18:11.637Z,97026.09
2023-04-22T04:20:39.345Z,97027.16
2023-04-22T04:23:06.892Z,97027.63
2023-04-22T04:25:38.349Z,97030.66
2023-04-22T04:28:11.276Z,97032.22
2023-04-22T04:30:39.006Z,97028.81
2023-04-22T04:33:07.862Z,97033.19
2023-04-22T04:35:38.332Z,97031.94
2023-04-22T04:38:07.257Z,97025.66
2023-04-22T04:40:36.106Z,97034.31
2023-04-22T04:43:16.150Z,97044.91
2023-04-22T04:45:49.591Z,97035.69
2023-04-22T04:48:25.161Z,97035.69
2023-04-22T04:50:56.672Z,97031.53
2023-04-22T04:53:26.880Z,97028.50
2023-04-22T04:55:56.019Z,97028.25
2023-04-22T04:58:29.065Z,97023.06
2023-04-22T05:01:09.077Z,97028.16
2023-04-22T05:03:36.900Z,97026.81
2023-04-22T05:06:05.832Z,97026.00
2023-04-22T05:08:34.657Z,97033.53
2023-04-22T05:11:07.033Z,97037.00
2023-04-22T05:13:36.028Z,97037.66
2023-04-22T05:16:04.570Z,97028.72
2023-04-22T05:18:32.365Z,97036.06
2023-04-22T05:21:04.460Z,97037.88
2023-04-22T05:23:33.569Z,97038.75
2023-04-22T05:26:02.118Z,97029.03
2023-04-22T05:28:31.260Z,97035.09
2023-04-22T05:31:00.190Z,97037.19
2023-04-22T05:33:30.081Z,97035.56
2023-04-22T05:35:57.631Z,97037.41
2023-04-22T05:38:25.775Z,97039.88
2023-04-22T05:40:56.217Z,97041.28
2023-04-22T05:43:24.881Z,97049.81
2023-04-22T05:46:00.527Z,97056.53
2023-04-22T05:48:28.066Z,97044.34
2023-04-22T05:51:02.367Z,97055.94
2023-04-22T05:53:31.262Z,97054.34
2023-04-22T05:56:01.075Z,97049.03
2023-04-22T05:58:28.642Z,97053.88
2023-04-22T06:01:02.423Z,97051.84
2023-04-22T06:04:10.372Z,97057.94
2023-04-22T06:06:38.328Z,97056.66
2023-04-22T06:09:07.155Z,97060.28
2023-04-22T06:11:35.703Z,97048.88
2023-04-22T06:14:03.451Z,97058.41
2023-04-22T06:16:33.494Z,97060.03
2023-04-22T06:19:01.515Z,97054.94
2023-04-22T06:21:29.596Z,97064.28
2023-04-22T06:23:57.808Z,97056.72
2023-04-22T06:26:25.326Z,97055.47
2023-04-22T06:28:52.896Z,97055.78
2023-04-22T06:31:21.507Z,97062.53
2023-04-22T06:33:50.944Z,97053.91
2023-04-22T06:36:19.909Z,97072.13
2023-04-22T06:38:54.413Z,97064.53
2023-04-22T06:41:42.138Z,97065.09
2023-04-22T06:44:25.914Z,97060.78
2023-04-22T06:47:12.402Z,97061.25
2023-04-22T06:49:55.491Z,97056.13
2023-04-22T06:52:30.184Z,97059.75
2023-04-22T06:55:03.788Z,97059.34
2023-04-22T07:01:06.190Z,97059.28
2023-04-22T07:03:33.981Z,97057.41
2023-04-22T07:06:08.020Z,97050.78
2023-04-22T07:08:35.727Z,97058.16
2023-04-22T07:11:03.502Z,97050.50
2023-04-22T07:13:43.313Z,97051.66
2023-04-22T07:16:10.772Z,97050.72
2023-04-22T07:18:39.890Z,97047.94
2023-04-22T07:21:08.778Z,97054.88
2023-04-22T07:23:36.360Z,97034.66
2023-04-22T07:26:04.004Z,97046.06
2023-04-22T07:28:31.642Z,97046.44
2023-04-22T07:30:59.159Z,97052.22
2023-04-22T07:33:26.660Z,97047.75
2023-04-22T07:35:54.185Z,97049.94
2023-04-22T07:38:23.045Z,97051.91
2023-04-22T07:40:50.740Z,97048.44
2023-04-22T07:43:18.742Z,97044.97
2023-04-22T07:45:46.348Z,97045.78
2023-04-22T07:48:13.940Z,97047.94
2023-04-22T07:50:41.485Z,97049.78
2023-04-22T07:53:10.711Z,97055.44
2023-04-22T07:55:39.600Z,97050.81
2023-04-22T07:58:07.183Z,97050.13
2023-04-22T08:00:37.762Z,97040.25
2023-04-22T08:03:05.553Z,97039.22
2023-04-22T08:05:33.177Z,97046.25
2023-04-22T08:08:00.758Z,97035.50
2023-04-22T08:10:28.283Z,97040.88
2023-04-22T08:12:57.184Z,97040.75
2023-04-22T08:15:24.735Z,97037.78
2023-04-22T08:17:52.320Z,97043.53
2023-04-22T08:20:19.878Z,97038.63
2023-04-22T08:22:47.480Z,97037.81
2023-04-22T08:25:14.998Z,97035.38
2023-04-22T08:27:42.516Z,97038.97
2023-04-22T08:30:11.865Z,97033.44
2023-04-22T08:32:39.404Z,97030.16
2023-04-22T08:35:11.564Z,97028.69
2023-04-22T08:37:40.547Z,97027.34
2023-04-22T08:40:08.842Z,97027.00
2023-04-22T08:42:36.336Z,97026.53
2023-04-22T08:45:04.265Z,97024.56
2023-04-22T08:47:33.915Z,97026.69
2023-04-22T08:50:03.037Z,97023.25
2023-04-22T08:52:31.075Z,97024.69
2023-04-22T08:54:58.637Z,97017.16
2023-04-22T08:57:26.196Z,97018.50
2023-04-22T08:59:55.483Z,97015.84
2023-04-22T09:02:23.149Z,97016.34
2023-04-22T09:04:52.435Z,97009.50
2023-04-22T09:07:22.350Z,97008.47
2023-04-22T09:09:50.296Z,97010.28
2023-04-22T09:12:19.003Z,97001.09
2023-04-22T09:14:46.632Z,97002.22
2023-04-22T09:17:16.105Z,96998.63
2023-04-22T09:19:46.453Z,97000.81
2023-04-22T09:22:16.259Z,97000.88
2023-04-22T09:24:45.176Z,97002.19
2023-04-22T09:27:12.700Z,97000.25
2023-04-22T09:29:40.673Z,97001.75
2023-04-22T09:32:12.277Z,96997.22
2023-04-22T09:34:46.496Z,97003.13
2023-04-22T09:48:40.006Z,96991.56
2023-04-22T09:51:07.739Z,96999.78
2023-04-22T09:53:37.679Z,96991.44
2023-04-22T09:56:05.291Z,96996.81
2023-04-22T09:58:38.779Z,96999.22
2023-04-22T10:01:06.556Z,96987.16
2023-04-22T10:03:34.386Z,96989.28
2023-04-22T10:06:03.572Z,96984.38
2023-04-22T10:08:33.412Z,96992.34
2023-04-22T10:11:01.445Z,96977.84
2023-04-22T10:13:29.293Z,96982.59
2023-04-22T10:19:52.302Z,96977.97
2023-04-22T10:26:57.356Z,96978.34
2023-04-22T10:29:27.262Z,96979.47
2023-04-22T10:31:57.277Z,96980.75
2023-04-22T10:34:25.165Z,96976.09
2023-04-22T10:36:56.324Z,96972.06
2023-04-22T10:39:23.983Z,96977.91
2023-04-22T10:41:55.366Z,96971.88
2023-04-22T10:44:23.116Z,96969.47
2023-04-22T10:46:58.316Z,96967.13
2023-04-22T10:49:26.271Z,96970.91
2023-04-22T10:51:54.538Z,96963.81
2023-04-22T10:54:41.083Z,96959.28
2023-04-22T10:57:08.923Z,96957.47
2023-04-22T10:59:42.112Z,96957.06
2023-04-22T11:02:12.212Z,96949.13
2023-04-22T11:04:39.987Z,96948.03
2023-04-22T11:07:14.093Z,96949.69
2023-04-22T11:09:41.820Z,96935.34
2023-04-22T11:12:38.835Z,96939.38
2023-04-22T11:15:07.675Z,96936.09
2023-04-22T11:21:14.108Z,96930.50
2023-04-22T11:27:38.004Z,96920.84
2023-04-22T11:30:07.908Z,96925.56
2023-04-22T11:32:37.456Z,96928.22
2023-04-22T11:35:06.158Z,96925.34
2023-04-22T11:37:40.915Z,96913.94
2023-04-22T11:40:28.151Z,96909.94
2023-04-22T11:43:03.126Z,96918.53
2023-04-22T11:45:32.036Z,96911.25
2023-04-22T11:48:01.982Z,96914.13
2023-04-22T11:50:32.083Z,96910.56
2023-04-22T11:53:01.146Z,96909.72
2023-04-22T11:55:30.691Z,96910.75
2023-04-22T11:57:59.893Z,96903.19
2023-04-22T12:00:34.759Z,96906.22
2023-04-22T12:03:04.678Z,96901.41
2023-04-22T12:05:52.910Z,96911.56
2023-04-22T12:08:21.059Z,96907.50
2023-04-22T12:14:39.439Z,96900.53
2023-04-22T12:17:07.724Z,96900.53
2023-04-22T12:19:36.640Z,96901.13
2023-04-22T12:22:04.202Z,96900.63
2023-04-22T12:24:31.833Z,96899.00
2023-04-22T12:26:59.613Z,96897.63
2023-04-22T12:29:31.348Z,96884.53
2023-04-22T12:31:58.935Z,96888.81
2023-04-22T12:34:26.448Z,96887.22
2023-04-22T12:37:00.072Z,96889.09
2023-04-22T12:39:28.251Z,96886.63
2023-04-22T12:41:55.776Z,96884.78
2023-04-22T12:44:25.085Z,96880.50
2023-04-22T12:46:53.147Z,96882.91
2023-04-22T12:49:21.267Z,96878.06
2023-04-22T12:51:48.802Z,96880.72
2023-04-22T12:54:17.893Z,96870.47
2023-04-22T12:56:46.706Z,96879.16
2023-04-22T12:59:14.211Z,96871.59
2023-04-22T13:01:41.790Z,96866.22
2023-04-22T13:04:09.558Z,96865.13
2023-04-22T13:06:38.710Z,96856.06
2023-04-22T13:09:07.053Z,96864.66
2023-04-22T13:11:35.969Z,96851.72
2023-04-22T13:14:03.548Z,96863.81
2023-04-22T13:16:31.222Z,96845.50
2023-04-22T13:18:58.988Z,96856.06
2023-04-22T13:21:27.590Z,96846.91
2023-04-22T13:23:55.126Z,96847.97
2023-04-22T13:26:22.848Z,96833.47
2023-04-22T13:28:51.793Z,96837.19
2023-04-22T13:31:19.355Z,96829.72
2023-04-22T13:33:47.407Z,96824.34
2023-04-22T13:36:15.168Z,96826.50
2023-04-22T13:38:42.740Z,96822.22
2023-04-22T13:41:10.299Z,96822.75
2023-04-22T13:43:38.111Z,96822.50
2023-04-22T13:46:07.209Z,96817.41
2023-04-22T13:48:36.415Z,96810.84
2023-04-22T13:51:04.218Z,96809.25
2023-04-22T13:53:34.166Z,96797.88
2023-04-22T13:56:02.265Z,96807.84
2023-04-22T13:58:29.833Z,96801.16
2023-04-22T14:00:57.789Z,96791.16
2023-04-22T14:03:28.443Z,96798.00
2023-04-22T14:05:56.122Z,96794.31
2023-04-22T14:08:23.717Z,96793.66
2023-04-22T14:10:51.252Z,96788.25
2023-04-22T14:13:18.908Z,96779.22
2023-04-22T14:15:46.487Z,96786.25
2023-04-22T14:18:14.082Z,96766.94
2023-04-22T14:20:43.170Z,96765.03
2023-04-22T14:23:10.702Z,96764.50
2023-04-22T14:25:38.572Z,96760.41
2023-04-22T14:28:06.453Z,96770.66
2023-04-22T14:30:34.041Z,96761.25
2023-04-22T14:33:01.589Z,96756.16
2023-04-22T14:35:31.891Z,96762.13
2023-04-22T14:38:00.733Z,96759.94
2023-04-22T14:40:29.299Z,96758.34
2023-04-22T14:42:57.007Z,96754.06
2023-04-22T14:45:24.894Z,96745.72
2023-04-22T14:47:53.648Z,96743.31
2023-04-22T14:50:21.846Z,96743.34
2023-04-22T14:52:49.365Z,96743.28
2023-04-22T14:55:23.371Z,96733.06
2023-04-22T14:57:52.036Z,96732.81
2023-04-22T15:00:19.863Z,96724.00
2023-04-22T15:02:47.802Z,96725.63
2023-04-22T15:05:15.562Z,96720.75
2023-04-22T15:07:43.151Z,96724.00
2023-04-22T15:10:10.863Z,96721.56
2023-04-22T15:12:39.738Z,96723.50
2023-04-22T15:15:07.914Z,96725.06
2023-04-22T15:17:35.808Z,96717.56
2023-04-22T15:20:05.740Z,96714.38
2023-04-22T15:22:34.112Z,96720.25
2023-04-22T15:25:01.713Z,96721.63
2023-04-22T15:27:30.433Z,96716.50
2023-04-22T15:29:59.304Z,96720.25
2023-04-22T15:32:26.849Z,96710.09
2023-04-22T15:34:54.405Z,96709.00
2023-04-22T15:37:22.065Z,96710.06
2023-04-22T15:39:49.596Z,96715.44
2023-04-22T15:42:17.126Z,96711.94
2023-04-22T15:44:44.718Z,96724.53
2023-04-22T15:47:13.611Z,96720.28
2023-04-22T15:49:41.391Z,96711.16
2023-04-22T15:52:09.276Z,96723.72
2023-04-22T15:54:36.829Z,96720.16
2023-04-22T15:57:04.426Z,96715.03
2023-04-22T15:59:31.950Z,96715.25
2023-04-22T16:01:59.577Z,96712.88
2023-04-22T16:04:28.788Z,96715.41
2023-04-22T16:06:57.526Z,96713.44
2023-04-22T16:09:25.079Z,96718.84
2023-04-22T16:11:52.625Z,96720.00
2023-04-22T16:14:20.313Z,96717.69
2023-04-22T16:16:48.031Z,96712.63
2023-04-22T16:19:15.824Z,96716.75
2023-04-22T16:21:44.733Z,96711.38
2023-04-22T16:24:14.525Z,96708.00
2023-04-22T16:26:43.136Z,96715.44
2023-04-22T16:29:10.639Z,96720.22
2023-04-22T16:31:38.722Z,96718.31
2023-04-22T16:34:06.327Z,96717.97
2023-04-22T16:36:33.985Z,96722.19
2023-04-22T16:39:03.107Z,96722.94
2023-04-22T16:41:31.207Z,96718.22
2023-04-22T16:43:58.724Z,96728.47
2023-04-22T16:46:26.610Z,96723.59
2023-04-22T16:48:56.449Z,96721.69
2023-04-22T16:51:24.072Z,96719.31
2023-04-22T16:53:51.587Z,96720.28
2023-04-22T16:56:20.828Z,96718.75
2023-04-22T16:58:48.370Z,96714.41
2023-04-22T17:01:16.183Z,96707.13
2023-04-22T17:03:43.978Z,96712.00
2023-04-22T17:06:11.731Z,96715.63
2023-04-22T17:08:39.263Z,96706.34
2023-04-22T17:11:07.611Z,96708.00
2023-04-22T17:13:40.640Z,96711.63
2023-04-22T17:16:10.986Z,96715.78
2023-04-22T17:18:38.600Z,96713.47
2023-04-22T17:21:06.347Z,96705.97
2023-04-22T17:23:33.858Z,96718.00
2023-04-22T17:26:01.411Z,96718.38
2023-04-22T17:28:28.859Z,96710.38
2023-04-22T17:31:00.868Z,96718.25
2023-04-22T17:33:29.162Z,96712.53
2023-04-22T17:35:56.835Z,96705.84
2023-04-22T17:38:24.319Z,96699.25
2023-04-22T17:40:51.986Z,96701.09
2023-04-22T17:43:19.524Z,96708.59
2023-04-22T17:45:47.041Z,96700.19
2023-04-22T17:48:19.214Z,96705.84
2023-04-22T17:50:47.034Z,96705.03
2023-04-22T17:53:14.636Z,96701.34
2023-04-22T17:55:42.117Z,96703.13
2023-04-22T17:58:09.852Z,96692.25
2023-04-22T18:00:37.656Z,96695.38
2023-04-22T18:03:05.603Z,96690.59
2023-04-22T18:05:34.872Z,96695.09
2023-04-22T18:08:04.092Z,96690.63
2023-04-22T18:10:31.719Z,96681.38
2023-04-22T18:12:59.222Z,96686.59
2023-04-22T18:15:26.719Z,96685.31
2023-04-22T18:17:54.202Z,96689.78
2023-04-22T18:20:21.948Z,96696.38
2023-04-22T18:22:51.997Z,96699.16
2023-04-22T18:25:19.582Z,96703.88
2023-04-22T18:27:47.706Z,96704.13
2023-04-22T18:30:15.536Z,96707.09
2023-04-22T18:32:43.134Z,96705.84
2023-04-22T18:35:13.094Z,96709.06
2023-04-22T18:37:42.458Z,96711.03
2023-04-22T18:40:11.985Z,96711.38
2023-04-22T18:42:39.505Z,96714.03
2023-04-22T18:45:07.911Z,96726.97
2023-04-22T18:47:35.742Z,96720.75
2023-04-22T18:50:03.338Z,96715.16
2023-04-22T18:52:33.643Z,96720.19
2023-04-22T18:55:01.187Z,96719.34
2023-04-22T18:57:30.073Z,96719.63
2023-04-22T18:59:57.646Z,96724.91
2023-04-22T19:02:27.807Z,96717.53
2023-04-22T19:04:55.444Z,96715.06
2023-04-22T19:07:23.174Z,96723.84
2023-04-22T19:09:50.869Z,96727.00
2023-04-22T19:12:19.723Z,96714.41
2023-04-22T19:14:48.965Z,96717.75
2023-04-22T19:17:16.591Z,96722.50
2023-04-22T19:19:45.454Z,96720.88
2023-04-22T19:22:13.578Z,96714.19
2023-04-22T19:24:41.523Z,96719.38
2023-04-22T19:27:12.436Z,96716.63
2023-04-22T19:29:40.713Z,96719.38
2023-04-22T19:32:11.086Z,96707.03
2023-04-22T19:34:38.857Z,96714.88
2023-04-22T19:37:06.738Z,96710.03
2023-04-22T19:39:36.332Z,96717.41
2023-04-22T19:42:06.368Z,96711.41
2023-04-22T19:44:36.315Z,96709.66
2023-04-22T19:47:04.842Z,96705.97
2023-04-22T19:49:34.027Z,96707.72
2023-04-22T19:52:01.898Z,96708.66
2023-04-22T19:54:29.432Z,96705.84
2023-04-22T19:56:57.935Z,96706.00
2023-04-22T19:59:25.746Z,96702.38
2023-04-22T20:01:55.865Z,96705.84
2023-04-22T20:04:23.824Z,96704.81
2023-04-22T20:06:53.296Z,96704.56
2023-04-22T20:09:21.970Z,96703.53
2023-04-22T20:11:49.559Z,96700.22
2023-04-22T20:14:17.060Z,96712.53
2023-04-22T20:16:47.983Z,96702.38
2023-04-22T20:19:20.104Z,96704.41
2023-04-22T20:21:50.577Z,96699.16
2023-04-22T20:24:22.502Z,96705.69
2023-04-22T20:26:50.152Z,96702.00
2023-04-22T20:29:20.572Z,96708.59
2023-04-22T20:31:48.277Z,96704.22
2023-04-22T20:34:15.872Z,96708.34
2023-04-22T20:36:43.411Z,96709.19
2023-04-22T20:39:12.564Z,96708.34
2023-04-22T20:41:44.358Z,96702.72
2023-04-22T20:44:15.831Z,96703.78
2023-04-22T20:46:48.875Z,96700.88
2023-04-22T20:49:16.822Z,96699.59
2023-04-22T20:51:44.900Z,96705.38
2023-04-22T20:54:27.764Z,96704.56
2023-04-22T20:57:01.192Z,96702.06
2023-04-22T20:59:28.834Z,96701.56
2023-04-22T21:01:56.387Z,96706.63
2023-04-22T21:04:24.177Z,96703.25
2023-04-22T21:06:52.218Z,96701.47
2023-04-22T21:09:20.993Z,96699.50
2023-04-22T21:11:48.701Z,96695.00
2023-04-22T21:14:24.226Z,96693.56
2023-04-22T21:17:14.058Z,96688.75
2023-04-22T21:19:47.633Z,96689.59
2023-04-22T21:22:15.195Z,96689.91
2023-04-22T21:24:43.076Z,96695.50
2023-04-22T21:27:11.042Z,96689.03
2023-04-22T21:29:40.352Z,96692.94
2023-04-22T21:32:09.330Z,96697.88
2023-04-22T21:34:38.037Z,96698.50
2023-04-22T21:37:06.199Z,96697.72
2023-04-22T21:39:33.773Z,96701.38
2023-04-22T21:42:02.474Z,96703.75
2023-04-22T21:44:30.047Z,96706.28
2023-04-22T21:46:58.926Z,96707.34
2023-04-22T21:49:26.515Z,96710.09
2023-04-22T21:51:54.059Z,96715.25
2023-04-22T21:54:22.997Z,96709.72
2023-04-22T21:56:50.790Z,96713.00
2023-04-22T21:59:18.547Z,96720.44
2023-04-22T22:01:46.133Z,96716.13
2023-04-22T22:04:16.360Z,96714.78
2023-04-22T22:06:46.123Z,96708.66
2023-04-22T22:09:13.767Z,96711.31
2023-04-22T22:11:41.273Z,96708.41
2023-04-22T22:14:08.840Z,96706.53
2023-04-22T22:16:38.334Z,96699.63
2023-04-22T22:19:06.424Z,96698.72
2023-04-22T22:21:35.262Z,96693.19
2023-04-22T22:24:02.846Z,96690.50
2023-04-22T22:26:30.460Z,96690.75
2023-04-22T22:28:58.020Z,96693.13
2023-04-22T22:31:25.776Z,96688.00
2023-04-22T22:33:53.305Z,96685.66
2023-04-22T22:36:21.202Z,96682.41
2023-04-22T22:38:50.086Z,96670.56
2023-04-22T22:41:17.628Z,96682.41
2023-04-22T22:43:45.291Z,96694.63
2023-04-22T22:46:12.872Z,96692.34
2023-04-22T22:48:40.473Z,96685.94
2023-04-22T22:51:09.512Z,96696.06
2023-04-22T22:53:37.290Z,96689.53
2023-04-22T22:56:06.732Z,96686.38
2023-04-22T22:58:36.277Z,96681.88
2023-04-22T23:01:05.079Z,96684.78
2023-04-22T23:03:32.842Z,96687.31
2023-04-22T23:06:00.733Z,96698.06
2023-04-22T23:08:28.640Z,96674.56
2023-04-22T23:10:56.483Z,96670.41
2023-04-22T23:13:25.345Z,96665.19
2023-04-22T23:15:52.845Z,96677.66
2023-04-22T23:18:20.710Z,96671.06
2023-04-22T23:20:48.390Z,96663.91
2023-04-22T23:23:16.481Z,96670.47
2023-04-22T23:25:44.317Z,96673.06
2023-04-22T23:28:12.297Z,96681.34
2023-04-22T23:30:41.674Z,96676.78
2023-04-22T23:33:09.308Z,96675.22
2023-04-22T23:35:37.175Z,96681.97
2023-04-22T23:38:04.814Z,96691.22
2023-04-22T23:40:32.309Z,96677.75
2023-04-22T23:43:02.785Z,96686.31
2023-04-22T23:45:34.024Z,96684.19
2023-04-22T23:48:02.950Z,96662.53
2023-04-22T23:50:30.684Z,96656.59
2023-04-22T23:52:58.295Z,96661.53
2023-04-22T23:55:26.331Z,96667.66
2023-04-22T23:57:54.146Z,96667.56
